Time;durP1;ratioP1;P1;durP2;ratioP2;P2;SDS_P1;SDS_P2;PMS_P1;PMS_P2;Temp;Humidity;BMP_temperature;BMP_pressure;BME280_temperature;BME280_humidity;BME280_pressure;Samples;Min_cycle;Max_cycle;Signal;HPM_P1;HPM_P2
2022/04/19 00:00:17;;;;;;;6.43;3.53;;;;;;;5.40;58.81;99859.69;4984601;28;20039;-60
2022/04/19 00:02:43;;;;;;;5.53;3.47;;;;;;;5.46;58.91;99864.84;4977137;28;20540;-61
2022/04/19 00:05:09;;;;;;;5.60;3.38;;;;;;;5.59;57.89;99860.59;4993713;28;20034;-59
2022/04/19 00:07:38;;;;;;;4.82;3.58;;;;;;;5.69;57.66;99862.31;4976364;28;20026;-59
2022/04/19 00:10:05;;;;;;;7.65;3.22;;;;;;;5.65;57.73;99863.16;4973312;28;20042;-58
2022/04/19 00:12:30;;;;;;;6.72;3.45;;;;;;;5.77;57.31;99864.03;5001035;28;20041;-59
2022/04/19 00:14:56;;;;;;;4.10;3.25;;;;;;;5.76;57.19;99859.72;4991099;28;20026;-59
2022/04/19 00:17:22;;;;;;;3.83;3.15;;;;;;;5.84;57.15;99860.59;5012351;28;20029;-59
2022/04/19 00:19:47;;;;;;;5.65;3.25;;;;;;;5.82;57.66;99862.31;4993813;28;20070;-59
2022/04/19 00:22:13;;;;;;;4.45;3.47;;;;;;;5.59;58.31;99864.88;4988163;28;20101;-60
2022/04/19 00:24:39;;;;;;;3.83;3.38;;;;;;;5.50;58.36;99856.28;5003135;28;20026;-59
2022/04/19 00:27:05;;;;;;;5.38;3.50;;;;;;;5.54;58.89;99862.28;5013152;28;20034;-59
2022/04/19 00:29:31;;;;;;;5.40;3.55;;;;;;;5.52;59.00;99859.72;5006348;28;20037;-60
2022/04/19 00:31:56;;;;;;;6.30;3.50;;;;;;;5.28;59.31;99850.22;4993215;28;20053;-58
2022/04/19 00:34:22;;;;;;;5.50;3.70;;;;;;;5.05;60.01;99855.31;5009099;28;20472;-60
2022/04/19 00:36:48;;;;;;;5.40;3.78;;;;;;;4.99;60.28;99853.56;5012541;28;20029;-60
2022/04/19 00:39:14;;;;;;;5.70;4.05;;;;;;;5.23;60.29;99859.66;5011584;28;20100;-59
2022/04/19 00:41:39;;;;;;;5.00;3.97;;;;;;;5.26;59.77;99851.97;5009065;28;20084;-59
2022/04/19 00:44:05;;;;;;;9.10;4.22;;;;;;;5.28;60.20;99847.66;4979156;28;20155;-59
2022/04/19 00:46:30;;;;;;;10.90;4.88;;;;;;;5.16;60.71;99851.06;5012724;28;20118;-59
2022/04/19 00:48:56;;;;;;;6.50;4.68;;;;;;;5.39;59.57;99851.97;5012826;28;20018;-59
2022/04/19 00:51:24;;;;;;;8.90;5.25;;;;;;;4.69;60.62;99784.16;4991541;28;20119;-59
2022/04/19 00:53:49;;;;;;;5.63;4.90;;;;;;;5.04;61.39;99852.72;4999777;28;20026;-58
2022/04/19 00:56:15;;;;;;;8.93;4.70;;;;;;;5.00;61.82;99847.59;5005226;28;20044;-58
2022/04/19 00:58:41;;;;;;;5.95;4.53;;;;;;;5.02;61.19;99847.59;4994820;28;20535;-59
2022/04/19 01:01:07;;;;;;;7.53;5.03;;;;;;;4.93;61.68;99845.84;4983847;28;20034;-60
2022/04/19 01:03:32;;;;;;;7.75;4.80;;;;;;;5.14;61.29;99836.50;4998283;28;20390;-60
2022/04/19 01:05:59;;;;;;;9.30;4.35;;;;;;;5.36;60.69;99835.72;5003250;28;20109;-60
2022/04/19 01:08:25;;;;;;;5.45;3.72;;;;;;;5.41;60.52;99840.84;5019249;28;20028;-59
2022/04/19 01:13:17;;;;;;;6.00;3.60;;;;;;;5.44;59.71;99827.16;4999587;28;20084;-59
2022/04/19 01:13:37;;;;;;;4.28;3.42;;;;;;;5.57;59.31;99841.72;5016760;28;20034;-59
2022/04/19 01:16:04;;;;;;;6.40;3.53;;;;;;;5.34;60.21;99837.44;4993561;28;20071;-59
2022/04/19 01:18:30;;;;;;;5.25;3.30;;;;;;;5.34;60.31;99834.88;4996232;28;20077;-59
2022/04/19 01:20:56;;;;;;;6.43;3.95;;;;;;;5.17;61.23;99851.91;4994776;28;20034;-59
2022/04/19 01:23:22;;;;;;;5.53;3.85;;;;;;;5.40;60.59;99843.41;4998657;28;20164;-60
2022/04/19 01:25:48;;;;;;;8.57;4.55;;;;;;;5.16;61.47;99830.53;4998379;28;20023;-59
2022/04/19 01:28:15;;;;;;;5.53;3.40;;;;;;;5.35;60.69;99836.56;4981295;28;20386;-59
2022/04/19 01:30:45;;;;;;;6.63;4.07;;;;;;;5.21;61.83;99832.25;5014723;28;20400;-60
2022/04/19 01:33:11;;;;;;;7.32;3.67;;;;;;;5.02;62.20;99837.34;5018334;28;20030;-59
2022/04/19 01:35:36;;;;;;;4.38;3.42;;;;;;;4.91;62.49;99827.00;4997502;28;20030;-60
2022/04/19 01:38:02;;;;;;;6.25;4.10;;;;;;;5.15;62.12;99831.38;4979182;28;20045;-60
2022/04/19 01:40:28;;;;;;;5.32;3.83;;;;;;;4.98;62.62;99822.78;5006121;28;20551;-60
2022/04/19 01:42:58;;;;;;;7.07;4.65;;;;;;;4.51;62.95;99761.88;5006527;28;20046;-60
2022/04/19 01:45:28;;;;;;;6.03;3.80;;;;;;;4.78;63.45;99825.25;5005804;28;20365;-60
2022/04/19 01:47:56;;;;;;;8.98;4.68;;;;;;;4.78;63.68;99825.25;5011811;28;20169;-60
2022/04/19 01:50:22;;;;;;;6.63;4.35;;;;;;;4.92;63.48;99830.47;4979280;28;20114;-61
2022/04/19 01:52:49;;;;;;;4.88;3.55;;;;;;;4.94;63.43;99829.59;5004150;28;20385;-60
2022/04/19 01:55:18;;;;;;;6.38;3.45;;;;;;;4.95;63.63;99841.56;5002681;28;20026;-60
2022/04/19 01:57:46;;;;;;;9.88;4.22;;;;;;;4.99;63.11;99827.91;5022953;28;20420;-60
2022/04/19 02:00:12;;;;;;;5.85;3.85;;;;;;;4.90;63.91;99827.84;4996591;28;20505;-60
2022/04/19 02:02:39;;;;;;;6.70;3.60;;;;;;;4.93;63.66;99814.19;4991162;28;20054;-59
2022/04/19 02:05:06;;;;;;;5.78;4.10;;;;;;;4.84;64.00;99825.28;5009509;28;20062;-59
2022/04/19 02:07:32;;;;;;;4.05;3.42;;;;;;;4.83;64.24;99831.25;4996563;28;20038;-59
2022/04/19 02:09:59;;;;;;;6.40;3.72;;;;;;;4.37;63.80;99754.94;5008470;28;20025;-59
2022/04/19 02:12:25;;;;;;;5.70;3.72;;;;;;;4.86;63.31;99831.28;4999673;28;20113;-60
2022/04/19 02:14:51;;;;;;;3.90;3.30;;;;;;;4.86;63.96;99821.03;4994441;28;20026;-60
2022/04/19 02:17:19;;;;;;;8.50;4.28;;;;;;;4.85;63.75;99824.44;4995576;28;20096;-60
2022/04/19 02:19:46;;;;;;;4.55;3.65;;;;;;;4.82;64.26;99822.69;4995478;28;20045;-60
2022/04/19 02:22:12;;;;;;;7.72;3.63;;;;;;;4.77;63.83;99820.97;4971722;28;20380;-60
2022/04/19 02:24:38;;;;;;;6.80;3.75;;;;;;;4.79;64.23;99832.13;5004066;28;20037;-60
2022/04/19 02:27:05;;;;;;;5.03;3.75;;;;;;;4.78;63.95;99832.97;4992823;28;20372;-60
2022/04/19 02:29:32;;;;;;;7.65;3.85;;;;;;;4.77;64.11;99829.50;5001687;28;20061;-60
2022/04/19 02:31:57;;;;;;;7.32;3.80;;;;;;;4.80;63.79;99833.81;4994866;28;20034;-58
2022/04/19 02:34:23;;;;;;;5.30;3.85;;;;;;;4.78;64.19;99832.97;4995235;28;20038;-59
2022/04/19 02:36:49;;;;;;;4.72;3.00;;;;;;;4.82;64.27;99834.69;4994875;28;20038;-59
2022/04/19 02:39:14;;;;;;;5.18;3.80;;;;;;;4.86;64.42;99831.28;4994973;28;20049;-59
2022/04/19 02:41:40;;;;;;;4.05;3.53;;;;;;;4.52;65.07;99830.25;5009855;28;20029;-60
2022/04/19 02:44:08;;;;;;;4.72;3.63;;;;;;;4.62;64.83;99832.03;4994902;28;20035;-60
2022/04/19 02:46:35;;;;;;;5.75;3.60;;;;;;;4.54;64.62;99844.78;4994770;28;20057;-60
2022/04/19 02:49:03;;;;;;;4.50;3.20;;;;;;;4.58;64.99;99841.41;5006360;28;20080;-60
2022/04/19 02:51:28;;;;;;;3.95;3.53;;;;;;;4.55;64.85;99841.38;5004465;28;20066;-60
2022/04/19 02:53:54;;;;;;;4.05;3.50;;;;;;;4.44;65.41;99856.69;5001234;28;20101;-61
2022/04/19 02:56:19;;;;;;;7.95;3.58;;;;;;;4.42;65.83;99852.44;5007282;28;20114;-60
2022/04/19 02:58:45;;;;;;;4.55;3.50;;;;;;;4.45;65.27;99858.41;4979157;28;20469;-61
2022/04/19 03:01:11;;;;;;;6.32;3.70;;;;;;;4.15;65.17;99788.16;4987664;28;20030;-61
2022/04/19 03:03:37;;;;;;;6.32;3.60;;;;;;;4.69;64.36;99850.84;4994372;28;20062;-60
2022/04/19 03:06:03;;;;;;;5.10;3.63;;;;;;;4.57;65.31;99869.59;4994380;28;20085;-61
2022/04/19 03:08:28;;;;;;;5.45;3.20;;;;;;;4.60;65.12;99870.50;4994426;28;20526;-61
2022/04/19 03:10:55;;;;;;;7.72;3.45;;;;;;;4.78;65.35;99869.72;4994439;28;20034;-60
2022/04/19 03:13:21;;;;;;;7.28;3.70;;;;;;;4.87;64.44;99874.03;4994279;28;20034;-59
2022/04/19 03:15:47;;;;;;;8.15;4.00;;;;;;;4.92;64.34;99872.34;4994198;28;20096;-61
2022/04/19 03:18:14;;;;;;;6.22;4.13;;;;;;;4.87;64.98;99879.16;4994484;28;20329;-61
2022/04/19 03:20:43;;;;;;;5.65;3.65;;;;;;;4.90;64.23;99884.31;4987594;28;20058;-60
2022/04/19 03:28:37;;;;;;;6.82;3.90;;;;;;;4.91;65.19;99874.91;4993807;28;20399;-61
2022/04/19 03:31:03;;;;;;;5.53;3.90;;;;;;;4.95;65.21;99880.06;5001596;28;20106;-61
2022/04/19 03:33:28;;;;;;;7.18;3.67;;;;;;;4.78;65.43;99876.56;5000873;28;20029;-59
2022/04/19 03:35:56;;;;;;;9.32;4.05;;;;;;;4.76;66.67;99876.56;4993780;28;20023;-61
2022/04/19 03:38:22;;;;;;;6.15;3.70;;;;;;;4.83;65.74;99880.88;4993816;28;20034;-60
2022/04/19 03:40:48;;;;;;;5.13;3.55;;;;;;;4.93;65.97;99879.22;5006991;28;20391;-60
2022/04/19 03:43:14;;;;;;;9.73;3.88;;;;;;;5.23;65.14;99887.91;5000407;28;20032;-60
2022/04/19 03:45:40;;;;;;;7.53;3.40;;;;;;;5.11;65.33;99885.28;4976257;28;20034;-60
2022/04/19 03:48:05;;;;;;;4.38;3.45;;;;;;;4.91;66.07;99888.59;4993361;28;20030;-60
2022/04/19 03:50:32;;;;;;;6.45;3.20;;;;;;;4.96;66.05;99889.50;4993667;28;20492;-60
2022/04/19 03:52:57;;;;;;;7.00;3.30;;;;;;;4.91;66.47;99880.06;4999777;28;20030;-59
2022/04/19 03:55:23;;;;;;;7.40;3.85;;;;;;;5.18;66.19;99887.84;4998729;28;20105;-60
2022/04/19 03:57:49;;;;;;;5.97;3.20;;;;;;;5.26;66.40;99884.47;5003354;28;20055;-59
2022/04/19 04:00:15;;;;;;;7.53;3.47;;;;;;;5.16;66.09;99878.47;4988258;28;20508;-60
2022/04/19 04:02:41;;;;;;;6.07;3.58;;;;;;;5.44;65.50;99879.38;4974156;28;20058;-60
2022/04/19 04:05:06;;;;;;;5.35;3.42;;;;;;;5.40;65.91;99885.38;4993332;28;20105;-60
2022/04/19 04:07:33;;;;;;;4.32;2.90;;;;;;;5.60;65.72;99885.44;4993103;28;20104;-60
2022/04/19 04:09:58;;;;;;;3.83;2.85;;;;;;;5.45;66.05;99885.38;4993030;28;20399;-59
2022/04/19 04:12:24;;;;;;;6.93;3.30;;;;;;;5.87;64.94;99887.19;4993069;28;20061;-60
2022/04/19 04:14:49;;;;;;;5.78;3.33;;;;;;;5.75;64.73;99873.47;4993126;28;20065;-60
2022/04/19 04:17:18;;;;;;;7.60;3.72;;;;;;;5.59;64.86;99845.16;4996928;28;20056;-60
2022/04/19 04:19:44;;;;;;;7.82;3.33;;;;;;;5.91;65.17;99889.75;4956504;28;20034;-60
2022/04/19 04:22:09;;;;;;;5.85;2.75;;;;;;;5.80;65.85;99885.47;4992192;28;20037;-60
2022/04/19 04:24:35;;;;;;;6.32;3.60;;;;;;;5.98;65.26;99894.91;5000367;28;20049;-60
2022/04/19 04:27:00;;;;;;;4.78;2.72;;;;;;;6.05;65.27;99881.19;4989017;28;20102;-60
2022/04/19 04:29:26;;;;;;;5.38;3.20;;;;;;;6.19;64.91;99888.06;4973552;28;20023;-60
2022/04/19 04:31:52;;;;;;;6.13;2.42;;;;;;;5.83;66.65;99894.91;4973695;28;20061;-60
2022/04/19 04:34:17;;;;;;;5.38;3.65;;;;;;;5.87;66.08;99884.59;4992573;28;20085;-59
2022/04/19 04:36:43;;;;;;;3.53;2.83;;;;;;;6.13;65.91;99886.38;4992317;28;20023;-59
2022/04/19 04:39:08;;;;;;;5.15;3.20;;;;;;;6.21;65.60;99887.22;5003591;28;20042;-60
2022/04/19 04:41:34;;;;;;;5.40;3.00;;;;;;;6.29;65.88;99887.22;5008186;28;20113;-59
2022/04/19 04:43:59;;;;;;;5.90;3.45;;;;;;;6.31;66.37;99885.47;4993437;28;20106;-59
2022/04/19 04:51:53;;;;;;;7.72;4.13;;;;;;;6.53;65.88;99894.03;4993796;28;20022;-63
2022/04/19 04:54:18;;;;;;;6.38;2.88;;;;;;;6.38;66.52;99894.94;4997590;28;20033;-60
2022/04/19 04:56:44;;;;;;;3.72;2.53;;;;;;;6.51;66.29;99879.47;5008264;28;20026;-60
2022/04/19 04:59:09;;;;;;;2.75;2.35;;;;;;;6.52;66.37;99888.91;4992445;28;20031;-60
2022/04/19 05:01:35;;;;;;;6.93;2.83;;;;;;;6.56;66.30;99896.59;4977055;28;20062;-60
2022/04/19 05:04:01;;;;;;;5.93;2.67;;;;;;;6.39;67.39;99896.63;5002627;28;20061;-60
2022/04/19 05:06:26;;;;;;;4.07;2.45;;;;;;;6.48;66.58;99903.47;4992237;28;20530;-59
2022/04/19 05:08:52;;;;;;;4.47;2.50;;;;;;;6.22;67.22;99890.66;4992371;28;20416;-61
2022/04/19 05:11:17;;;;;;;4.57;2.72;;;;;;;6.48;66.35;99900.06;4992259;28;20110;-61
2022/04/19 05:13:43;;;;;;;5.20;2.70;;;;;;;6.32;65.94;99900.06;4991924;28;20085;-59
2022/04/19 05:16:09;;;;;;;4.55;2.30;;;;;;;6.37;65.39;99898.34;4991881;28;20023;-60
2022/04/19 05:18:34;;;;;;;5.90;2.67;;;;;;;6.30;65.62;99888.94;4992070;28;20104;-59
2022/04/19 05:21:00;;;;;;;6.88;3.15;;;;;;;6.31;66.02;99900.06;4987044;28;20126;-58
2022/04/19 05:23:26;;;;;;;5.30;2.53;;;;;;;6.31;65.79;99893.19;5011742;28;20439;-59
2022/04/19 05:25:51;;;;;;;6.78;2.60;;;;;;;6.34;65.79;99908.66;4994230;28;20464;-60
2022/04/19 05:28:17;;;;;;;7.32;3.00;;;;;;;6.38;65.93;99894.06;4999140;28;20550;-58
2022/04/19 05:30:42;;;;;;;6.32;2.60;;;;;;;6.48;65.78;99905.19;5000165;28;20030;-57
2022/04/19 05:33:09;;;;;;;4.32;2.80;;;;;;;6.49;66.12;99906.91;5008319;28;20431;-60
2022/04/19 05:35:35;;;;;;;3.80;2.22;;;;;;;6.41;66.77;99903.50;5005976;28;20037;-58
2022/04/19 05:38:00;;;;;;;3.20;2.28;;;;;;;6.61;65.92;99901.72;4993950;28;20038;-59
2022/04/19 05:40:26;;;;;;;7.05;2.58;;;;;;;6.59;65.96;99910.34;5007876;28;20045;-60
2022/04/19 05:42:52;;;;;;;6.20;2.90;;;;;;;6.71;65.52;99900.88;5002093;28;20494;-59
2022/04/19 05:45:18;;;;;;;3.53;2.38;;;;;;;6.82;65.49;99903.41;4992017;28;20030;-62
2022/04/19 05:47:43;;;;;;;2.83;2.53;;;;;;;6.85;65.42;99894.81;4993512;28;20026;-59
2022/04/19 05:50:10;;;;;;;2.80;2.20;;;;;;;6.99;65.24;99892.22;4995871;28;20054;-59
2022/04/19 05:52:36;;;;;;;2.83;2.38;;;;;;;6.99;65.46;99885.34;4996032;28;20387;-60
2022/04/19 05:55:02;;;;;;;5.05;2.33;;;;;;;7.32;63.87;99888.63;4996134;28;20039;-59
2022/04/19 05:57:29;;;;;;;5.10;2.20;;;;;;;7.27;64.44;99887.81;5001675;28;20085;-59
2022/04/19 05:59:54;;;;;;;4.55;2.13;;;;;;;7.20;64.25;99871.53;5012569;28;20030;-60
2022/04/19 06:05:04;;;;;;;6.30;2.00;;;;;;;7.33;63.81;99882.63;4995310;28;20033;-60
2022/04/19 06:07:31;;;;;;;3.20;1.83;;;;;;;7.47;63.70;99866.22;4994770;28;20029;-59
2022/04/19 06:09:58;;;;;;;4.43;2.00;;;;;;;7.57;63.49;99886.78;4995556;28;20030;-59
2022/04/19 06:12:24;;;;;;;3.80;2.15;;;;;;;7.73;62.89;99873.81;4995742;28;20038;-60
2022/04/19 06:14:49;;;;;;;5.22;2.05;;;;;;;7.91;62.07;99878.84;4977628;28;20023;-60
2022/04/19 06:17:17;;;;;;;7.13;2.30;;;;;;;8.00;62.40;99875.31;4995032;28;20033;-59
2022/04/19 06:19:43;;;;;;;5.60;2.33;;;;;;;8.25;61.48;99880.28;4976010;28;20077;-60
2022/04/19 06:22:09;;;;;;;4.65;2.17;;;;;;;8.29;61.01;99882.84;5005287;28;20022;-60
2022/04/19 06:24:35;;;;;;;8.52;2.40;;;;;;;8.51;60.92;99876.63;4973530;28;20018;-60
2022/04/19 06:27:01;;;;;;;3.15;2.13;;;;;;;8.60;60.76;99876.53;4994364;28;20113;-59
2022/04/19 06:29:26;;;;;;;4.10;2.13;;;;;;;8.75;60.46;99886.72;4993607;28;20162;-59
2022/04/19 06:31:52;;;;;;;4.10;2.28;;;;;;;8.37;60.83;99882.75;4994425;28;20030;-59
2022/04/19 06:34:17;;;;;;;4.80;1.90;;;;;;;8.43;60.47;99881.84;4993998;28;20022;-59
2022/04/19 06:36:44;;;;;;;4.35;2.30;;;;;;;8.27;60.72;99884.56;4993498;28;20041;-60
2022/04/19 06:39:09;;;;;;;3.05;2.03;;;;;;;8.46;59.80;99889.56;4993193;28;20045;-60
2022/04/19 06:41:36;;;;;;;4.82;2.58;;;;;;;8.68;59.26;99886.78;5012880;28;20037;-60
2022/04/19 06:44:02;;;;;;;8.25;2.35;;;;;;;8.91;58.38;99891.72;4995962;28;20153;-60
2022/04/19 06:46:28;;;;;;;5.05;2.50;;;;;;;9.33;57.76;99886.88;5008406;28;20108;-61
2022/04/19 06:48:54;;;;;;;7.47;2.30;;;;;;;9.30;56.58;99890.34;5005308;28;20041;-60
2022/04/19 06:51:23;;;;;;;2.33;2.13;;;;;;;9.23;57.62;99887.88;4994611;28;20038;-60
2022/04/19 06:53:49;;;;;;;5.55;2.05;;;;;;;9.54;57.05;99882.31;5000883;28;20022;-60
2022/04/19 06:56:19;;;;;;;4.43;2.17;;;;;;;9.26;56.58;99903.34;4994619;28;20026;-60
2022/04/19 06:58:44;;;;;;;4.57;2.05;;;;;;;9.63;55.92;99892.50;5009622;28;20034;-60
2022/04/19 07:01:11;;;;;;;5.70;2.13;;;;;;;9.21;56.69;99898.25;5002602;28;20026;-60
2022/04/19 07:03:37;;;;;;;3.60;1.90;;;;;;;9.32;57.14;99887.78;5000989;28;20117;-60
2022/04/19 07:06:05;;;;;;;7.13;2.13;;;;;;;9.67;56.29;99895.03;5010045;28;20051;-60
2022/04/19 07:08:31;;;;;;;5.70;2.40;;;;;;;9.76;56.81;99891.47;5008575;28;20037;-60
2022/04/19 07:10:58;;;;;;;3.85;1.92;;;;;;;9.63;56.67;99885.63;4996671;28;20033;-60
2022/04/19 07:13:24;;;;;;;5.75;2.25;;;;;;;9.98;55.78;99876.47;5000298;28;20115;-60
2022/04/19 07:15:50;;;;;;;7.20;2.60;;;;;;;10.91;54.52;99897.31;4996678;28;20074;-60
2022/04/19 07:18:17;;;;;;;4.53;2.30;;;;;;;11.28;52.75;99894.00;4990244;28;20034;-60
2022/04/19 07:28:55;;;;;;;3.67;2.00;;;;;;;11.09;52.66;99883.13;4993810;28;20026;-60
2022/04/19 07:31:21;;;;;;;5.03;2.50;;;;;;;10.49;54.11;99891.19;4994102;28;20034;-60
2022/04/19 07:33:46;;;;;;;7.10;2.35;;;;;;;10.45;54.88;99893.84;5002810;28;20027;-59
2022/04/19 07:36:12;;;;;;;3.10;1.98;;;;;;;10.32;55.01;99883.66;4993835;28;20579;-59
2022/04/19 07:38:37;;;;;;;3.75;1.73;;;;;;;10.14;56.12;99884.81;4989621;28;20023;-60
2022/04/19 07:41:04;;;;;;;4.97;2.10;;;;;;;10.63;55.34;99890.94;5009547;28;20072;-59
2022/04/19 07:43:30;;;;;;;4.95;2.40;;;;;;;10.74;55.20;99889.88;4999867;28;20090;-59
2022/04/19 07:45:56;;;;;;;2.38;2.00;;;;;;;10.63;55.54;99887.47;5002221;28;20026;-59
2022/04/19 07:48:22;;;;;;;5.93;2.30;;;;;;;10.84;54.29;99871.53;5012863;28;20471;-59
2022/04/19 07:50:47;;;;;;;2.15;1.60;;;;;;;10.23;56.79;99881.22;5013357;28;20022;-60
2022/04/19 07:53:13;;;;;;;4.55;2.20;;;;;;;10.07;58.08;99879.78;5004007;28;20110;-59
2022/04/19 07:55:39;;;;;;;3.47;2.20;;;;;;;10.09;57.80;99885.78;4993537;28;20049;-60
2022/04/19 07:58:04;;;;;;;6.78;2.03;;;;;;;9.82;58.81;99888.78;4993027;28;20026;-59
2022/04/19 08:00:30;;;;;;;5.53;2.00;;;;;;;9.90;58.25;99903.34;4993487;28;20037;-60
2022/04/19 08:02:56;;;;;;;4.40;2.08;;;;;;;10.09;57.96;99876.31;4993810;28;20047;-59
2022/04/19 08:05:23;;;;;;;5.25;1.90;;;;;;;9.90;59.61;99890.41;5006623;28;20053;-60
2022/04/19 08:07:49;;;;;;;6.32;1.80;;;;;;;9.82;59.95;99886.19;4989488;28;20038;-59
2022/04/19 08:10:16;;;;;;;5.05;1.88;;;;;;;9.76;60.31;99896.66;4992241;28;20027;-59
2022/04/19 08:12:42;;;;;;;3.53;2.03;;;;;;;9.54;59.76;99913.34;4994176;28;20157;-59
2022/04/19 08:15:08;;;;;;;2.85;1.90;;;;;;;9.58;60.48;99892.59;4992919;28;20105;-60
2022/04/19 08:17:34;;;;;;;5.00;2.60;;;;;;;9.85;60.33;99904.25;4975317;28;20398;-58
2022/04/19 08:20:01;;;;;;;3.00;2.00;;;;;;;9.83;60.58;99907.72;4991420;28;20081;-60
2022/04/19 08:22:27;;;;;;;4.60;1.95;;;;;;;9.87;60.02;99895.63;4986367;28;20494;-60
2022/04/19 08:24:53;;;;;;;3.08;1.90;;;;;;;9.68;61.18;99893.31;4995470;28;20038;-59
2022/04/19 08:27:19;;;;;;;3.03;2.00;;;;;;;9.75;61.52;99899.22;4982040;28;20102;-59
2022/04/19 08:29:45;;;;;;;3.17;1.90;;;;;;;9.63;61.42;99908.03;5012501;28;20475;-59
2022/04/19 08:32:11;;;;;;;3.50;2.35;;;;;;;9.88;60.41;99907.69;4982493;28;20026;-59
2022/04/19 08:34:38;;;;;;;2.13;1.90;;;;;;;9.80;61.57;99898.28;4992561;28;20035;-59
2022/04/19 08:37:04;;;;;;;6.82;2.20;;;;;;;9.46;61.10;99856.53;4992714;28;20108;-59
2022/04/19 08:39:30;;;;;;;2.92;1.85;;;;;;;9.50;61.89;99879.78;4993687;28;20029;-59
2022/04/19 08:41:55;;;;;;;3.40;2.00;;;;;;;9.56;62.21;99880.53;5010426;28;20026;-59
2022/04/19 08:44:21;;;;;;;4.72;2.25;;;;;;;9.83;61.81;99890.50;4992881;28;20406;-59
2022/04/19 08:46:46;;;;;;;5.20;2.13;;;;;;;10.04;61.61;99890.19;5006187;28;20116;-59
2022/04/19 08:49:15;;;;;;;4.78;2.10;;;;;;;10.23;60.47;99901.09;5001658;28;20034;-59
2022/04/19 08:51:41;;;;;;;6.00;2.13;;;;;;;10.16;61.14;99888.25;4992292;28;20030;-60
2022/04/19 08:59:39;;;;;;;2.47;1.90;;;;;;;10.06;61.14;99894.47;4992590;28;20031;-60
2022/04/19 09:02:05;;;;;;;3.25;1.90;;;;;;;9.94;61.61;99894.66;5010010;28;20062;-61
2022/04/19 09:04:31;;;;;;;5.05;2.20;;;;;;;10.13;60.84;99893.50;4986324;28;20049;-60
2022/04/19 09:07:00;;;;;;;7.32;2.15;;;;;;;10.14;60.69;99890.00;4981331;28;20034;-60
2022/04/19 09:09:29;;;;;;;3.10;2.22;;;;;;;10.16;60.50;99892.56;4992436;28;20066;-60
2022/04/19 09:12:10;;;;;;;2.72;2.17;;;;;;;10.33;60.06;99890.56;4993966;28;20030;-59
2022/04/19 09:14:36;;;;;;;7.75;2.33;;;;;;;10.77;59.18;99880.28;4972943;28;20499;-60
2022/04/19 09:17:03;;;;;;;6.30;2.80;;;;;;;11.00;58.02;99814.22;4989217;28;20026;-59
2022/04/19 09:19:29;;;;;;;7.63;2.60;;;;;;;11.59;57.88;99870.84;4992142;28;20045;-60
2022/04/19 09:21:55;;;;;;;6.38;2.20;;;;;;;11.33;57.14;99874.00;4967689;28;20030;-59
2022/04/19 09:24:22;;;;;;;5.72;2.08;;;;;;;11.21;57.54;99881.13;4996156;28;20088;-60
2022/04/19 09:26:49;;;;;;;2.45;2.05;;;;;;;11.28;57.51;99878.44;4994568;28;20034;-60
2022/04/19 09:29:26;;;;;;;5.35;2.03;;;;;;;11.13;56.96;99819.97;4992329;28;20030;-60
2022/04/19 09:31:54;;;;;;;8.20;2.40;;;;;;;11.79;56.58;99867.78;4991408;28;20047;-58
2022/04/19 09:34:28;;;;;;;3.75;2.20;;;;;;;11.22;56.11;99812.03;4991256;28;20038;-59
2022/04/19 09:37:06;;;;;;;2.17;1.98;;;;;;;11.61;56.57;99879.44;4980860;28;20036;-59
2022/04/19 09:39:34;;;;;;;4.43;2.10;;;;;;;11.29;57.44;99890.53;4999874;28;20046;-60
2022/04/19 09:42:04;;;;;;;3.95;2.20;;;;;;;11.16;57.62;99831.16;5010759;28;20033;-60
2022/04/19 09:44:30;;;;;;;6.72;3.13;;;;;;;11.48;57.25;99884.03;4991171;28;20023;-59
2022/04/19 09:47:06;;;;;;;23.80;6.72;;;;;;;11.57;57.60;99872.59;4990512;28;20048;-60
2022/04/19 09:49:45;;;;;;;26.20;6.25;;;;;;;11.67;57.41;99868.06;5011832;28;20030;-60
2022/04/19 09:52:22;;;;;;;45.45;7.53;;;;;;;11.53;57.68;99861.47;4998995;28;20033;-59
2022/04/19 09:55:08;;;;;;;22.48;4.50;;;;;;;11.64;57.23;99881.09;4976203;28;20097;-60
2022/04/19 09:57:36;;;;;;;11.55;2.88;;;;;;;12.00;57.07;99881.16;4981154;28;20030;-60
2022/04/19 10:00:05;;;;;;;75.72;11.45;;;;;;;11.70;57.06;99855.88;4992776;28;20082;-59
2022/04/19 10:08:20;;;;;;;25.77;4.88;;;;;;;12.02;55.66;99850.84;4990989;28;20038;-59
2022/04/19 10:10:51;;;;;;;113.25;12.70;;;;;;;12.34;55.69;99865.63;4991115;28;20037;-59
2022/04/19 10:13:20;;;;;;;29.70;5.47;;;;;;;12.03;54.82;99836.97;4992775;28;20526;-59
2022/04/19 10:15:46;;;;;;;12.68;2.60;;;;;;;12.26;55.58;99837.22;4990741;28;20034;-60
2022/04/19 10:18:12;;;;;;;6.63;2.10;;;;;;;12.70;54.41;99882.88;4990413;28;20042;-60
2022/04/19 10:20:58;;;;;;;14.80;2.70;;;;;;;12.50;54.20;99879.03;4999662;28;20106;-60
2022/04/19 10:23:38;;;;;;;9.48;2.10;;;;;;;12.80;54.39;99870.44;4991124;28;20217;-60
2022/04/19 10:26:21;;;;;;;80.68;11.32;;;;;;;12.33;54.78;99863.06;4994656;28;20128;-59
2022/04/19 10:28:58;;;;;;;9.60;2.58;;;;;;;12.72;53.76;99894.06;4994832;28;20049;-60
2022/04/19 10:31:35;;;;;;;18.08;3.50;;;;;;;12.73;53.48;99896.63;4995224;28;20416;-60
2022/04/19 10:34:05;;;;;;;8.40;1.70;;;;;;;12.65;53.91;99902.91;4994127;28;20891;-60
2022/04/19 10:36:37;;;;;;;12.13;2.30;;;;;;;12.60;53.67;99900.44;4994899;28;20500;-60
2022/04/19 10:39:08;;;;;;;;;;;;;;;12.76;53.33;99895.69;4997534;28;20084;-60
2022/04/19 10:42:03;;;;;;;1.77;1.50;;;;;;;12.11;53.50;99840.22;5001631;28;19909;-61
2022/04/19 10:44:36;;;;;;;5.78;1.70;;;;;;;12.13;54.38;99856.63;4990307;28;20065;-61
2022/04/19 10:47:13;;;;;;;2.58;2.00;;;;;;;12.29;54.15;99890.84;5007824;28;20049;-61
2022/04/19 10:50:07;;;;;;;5.65;1.90;;;;;;;12.71;54.02;99879.34;4996306;28;20045;-60
2022/04/19 10:52:35;;;;;;;5.15;1.80;;;;;;;12.86;53.52;99884.13;5002823;28;20022;-61
2022/04/19 10:55:03;;;;;;;10.18;1.90;;;;;;;12.63;52.97;99858.78;4994739;28;20030;-60
2022/04/19 11:00:29;;;;;;;2.83;1.50;;;;;;;12.41;52.95;99845.50;4994551;28;20034;-61
2022/04/19 11:03:02;;;;;;;4.47;1.77;;;;;;;12.72;53.82;99873.28;4994426;28;20103;-60
2022/04/19 11:05:55;;;;;;;4.45;1.60;;;;;;;12.81;52.67;99859.16;4994558;28;20344;-60
2022/04/19 11:08:26;;;;;;;;;;;;;;;12.72;53.39;99855.91;4992590;28;20137;-60
2022/04/19 11:10:52;;;;;;;6.13;1.70;;;;;;;12.67;53.98;99855.22;4994203;28;19914;-60
2022/04/19 11:13:22;;;;;;;1.40;1.30;;;;;;;12.78;53.09;99847.09;4996420;28;20026;-60
2022/04/19 11:16:08;;;;;;;8.45;2.10;;;;;;;12.26;52.05;99704.78;4994670;28;20030;-60
2022/04/19 11:18:57;;;;;;;6.80;1.58;;;;;;;13.35;50.85;99840.28;4994001;28;20425;-60
2022/04/19 11:22:01;;;;;;;2.90;1.50;;;;;;;13.23;52.30;99845.84;5000721;28;20034;-60
2022/04/19 11:25:04;;;;;;;2.20;1.63;;;;;;;13.25;52.19;99850.09;4934095;29;20092;-60
2022/04/19 11:27:52;;;;;;;3.58;1.60;;;;;;;13.29;51.71;99843.88;4952936;29;20035;-60
2022/04/19 11:30:17;;;;;;;6.45;1.73;;;;;;;13.51;51.63;99839.81;4952864;29;20054;-60
2022/04/19 11:32:49;;;;;;;1.55;1.38;;;;;;;13.66;50.75;99825.47;4953246;29;20031;-61
2022/04/19 11:35:17;;;;;;;3.25;1.65;;;;;;;13.83;50.53;99830.16;4952959;29;20046;-61
2022/04/19 11:37:44;;;;;;;3.70;1.20;;;;;;;13.48;50.84;99856.38;4952734;29;20067;-61
2022/04/19 11:48:48;;;;;;;3.65;1.42;;;;;;;13.13;50.43;99772.44;4952623;29;20055;-61
2022/04/19 11:51:16;;;;;;;7.07;1.90;;;;;;;13.74;50.16;99816.53;4952067;29;20589;-61
2022/04/19 11:53:42;;;;;;;7.45;1.77;;;;;;;13.92;50.15;99812.47;4951217;29;20042;-61
2022/04/19 11:56:08;;;;;;;2.80;1.40;;;;;;;14.13;49.08;99818.69;4982819;28;20046;-61
2022/04/19 11:58:36;;;;;;;5.45;1.30;;;;;;;14.17;49.87;99811.63;4993759;28;20030;-60
2022/04/19 12:01:03;;;;;;;8.07;1.50;;;;;;;14.29;49.16;99819.03;4975528;28;20083;-61
2022/04/19 12:03:32;;;;;;;1.67;1.30;;;;;;;14.27;49.02;99792.19;4993202;28;20043;-62
2022/04/19 12:06:16;;;;;;;1.52;1.42;;;;;;;14.00;48.99;99760.13;4993421;28;20030;-61
2022/04/19 12:08:50;;;;;;;3.60;1.17;;;;;;;14.04;49.92;99808.59;4992836;28;20034;-61
2022/04/19 12:11:21;;;;;;;2.35;1.13;;;;;;;13.97;49.85;99813.16;5009433;28;20051;-61
2022/04/19 12:13:47;;;;;;;2.67;1.33;;;;;;;14.01;49.98;99813.03;4990762;28;20049;-62
2022/04/19 12:16:30;;;;;;;1.83;1.38;;;;;;;13.88;49.63;99815.22;4982745;28;20022;-61
2022/04/19 12:19:17;;;;;;;3.05;1.75;;;;;;;13.81;49.84;99765.13;4971110;28;20387;-62
2022/04/19 12:21:46;;;;;;;3.72;1.52;;;;;;;14.22;49.61;99811.47;4996880;28;20042;-61
2022/04/19 12:24:23;;;;;;;3.35;1.73;;;;;;;14.12;49.75;99816.16;4993787;28;20032;-62
2022/04/19 12:26:50;;;;;;;3.30;1.60;;;;;;;13.90;50.13;99816.88;4993076;28;20101;-60